02:04 Rennrad Tschirgantrunde mittel
Ort Moetz Datum 23.07.2016 09:53:58
Kategorie Rennrad
Distanz 66,71 Kilometer Steigung 698,0 Meter Gefälle -693,0 Meter
Gesamt Zeit 02:03:34 Aktiv 02:03:34 Pause 00:00:00
Durchs. Tempo 32,4 km/h Tempo max. 64,9 km/h Tempo min. 17,3 km/h
Kalorien 0 Durchs. HF 143 BPM HF max. 171 BPM
Wetter 24 °C PartClouds Min/Max: 21,3 °C/25,8 °C; Druck: 1017,2 mbar; Rel. Feuchte: 68,5%; Taupunkt: 18,2 °C; Niederschlag: 0,0mm
Ausrüstung Bontrager - RXL Road
Continental - Grand Prix 4000 S II 25-622
Poison - Rennrad
Shimano - HG CN-7901 Dura Ace
Notiz Moetz - Imst - Nassereith - Holzleitensattel - Barwies - Telfs - Moetz ... trocken, mittlerer Wind aus Richtung Telfs, super Radltemperaturen, flott ... garmin connect
Splits
Distanz (km) Gesamt Zeit Split Zeit Split Tempo Split Tempo Höhenprofil (m)
1,00 00:02:08 00:02:08 00:02:08 28,1 -9,84
2,00 00:03:59 00:01:51 00:01:51 32,3 1,83
3,00 00:05:52 00:01:53 00:01:53 31,8 7,91
4,00 00:07:46 00:01:53 00:01:54 31,6 9,26
5,00 00:09:53 00:02:07 00:02:07 28,3 5,65
6,00 00:11:42 00:01:48 00:01:49 33,2 5,89
7,00 00:13:34 00:01:52 00:01:52 32,1 1,33
8,00 00:15:25 00:01:51 00:01:51 32,3 7,00
9,00 00:17:15 00:01:50 00:01:50 32,7 3,25
10,00 00:19:08 00:01:52 00:01:53 31,9 16,99
11,00 00:21:40 00:02:31 00:02:32 23,7 26,98
12,00 00:23:17 00:01:37 00:01:37 37,0 0,70
13,00 00:25:08 00:01:50 00:01:51 32,5 -0,65
14,00 00:26:35 00:01:26 00:01:27 41,5 -15,10
15,00 00:29:01 00:02:25 00:02:26 24,7 45,62
16,00 00:32:12 00:03:10 00:03:11 18,9 52,32
17,00 00:34:37 00:02:25 00:02:26 24,7 3,50
18,00 00:35:52 00:01:14 00:01:15 48,2 -32,64
19,00 00:37:14 00:01:21 00:01:22 43,9 -16,97
20,00 00:38:28 00:01:14 00:01:14 48,4 -34,84
21,00 00:41:04 00:02:35 00:02:36 23,1 33,26
22,00 00:43:30 00:02:25 00:02:26 24,7 24,65
23,00 00:46:06 00:02:35 00:02:36 23,1 47,40
24,00 00:47:53 00:01:47 00:01:47 33,6 -0,93
25,00 00:49:29 00:01:35 00:01:36 37,6 -18,54
26,00 00:51:00 00:01:30 00:01:31 39,6 -14,45
27,00 00:52:49 00:01:49 00:01:50 32,8 16,27
28,00 00:54:40 00:01:50 00:01:51 32,5 4,63
29,00 00:56:23 00:01:42 00:01:43 35,0 -2,52
30,00 00:58:14 00:01:50 00:01:51 32,6 1,15
31,00 00:59:53 00:01:39 00:01:39 36,3 2,42
32,00 01:01:48 00:01:55 00:01:56 31,2 7,95
33,00 01:03:36 00:01:47 00:01:48 33,4 -10,27
34,00 01:05:11 00:01:34 00:01:35 38,0 -9,41
35,00 01:07:50 00:02:39 00:02:39 22,6 43,15
36,00 01:11:11 00:03:20 00:03:21 17,9 59,45
37,00 01:14:31 00:03:20 00:03:20 18,0 48,39
38,00 01:17:49 00:03:18 00:03:18 18,2 56,13
39,00 01:20:48 00:02:58 00:02:58 20,2 39,48
40,00 01:23:24 00:02:36 00:02:36 23,1 29,27
41,00 01:26:00 00:02:35 00:02:36 23,1 29,46
42,00 01:27:08 00:01:08 00:01:08 52,9 -57,91
43,00 01:28:08 00:01:00 00:01:00 59,5 -49,05
44,00 01:29:27 00:01:18 00:01:18 45,9 -25,98
45,00 01:30:34 00:01:06 00:01:07 53,8 -46,62
46,00 01:31:35 00:01:01 00:01:02 58,2 -41,58
47,00 01:33:05 00:01:29 00:01:30 40,0 -18,14
48,00 01:34:44 00:01:38 00:01:39 36,4 -4,95
49,00 01:36:16 00:01:31 00:01:32 39,2 -5,94
50,00 01:37:41 00:01:24 00:01:25 42,5 -15,82
51,00 01:38:47 00:01:06 00:01:06 54,3 -39,88
52,00 01:39:57 00:01:09 00:01:10 51,7 -33,97
53,00 01:41:07 00:01:10 00:01:11 50,8 -30,51
54,00 01:42:17 00:01:09 00:01:10 51,8 -43,34
55,00 01:43:18 00:01:01 00:01:01 58,8 -52,90
56,00 01:45:29 00:02:10 00:02:10 27,6 -23,87
57,00 01:47:12 00:01:43 00:01:43 34,9 -0,83
58,00 01:48:52 00:01:40 00:01:40 36,0 1,88
59,00 01:50:32 00:01:40 00:01:40 35,9 2,62
60,00 01:52:18 00:01:45 00:01:46 34,0 6,75
61,00 01:53:58 00:01:39 00:01:40 36,1 1,49
62,00 01:55:35 00:01:37 00:01:37 37,1 -1,85
63,00 01:57:13 00:01:37 00:01:38 36,7 1,56
64,00 01:58:51 00:01:38 00:01:39 36,4 4,00
65,00 02:00:29 00:01:37 00:01:37 36,9 0,02
66,00 02:02:10 00:01:40 00:01:41 35,8 -0,15
66,74 02:03:34 00:01:23 00:01:54 31,7 10,47